sensor_id;sensor_type;location;lat;lon;timestamp;pressure;altitude;pressure_sealevel;temperature;humidity
69035;BME280;56091;55.756;37.412;2022-08-03T00:01:52;99106.09;;;21.01;52.30
69035;BME280;56091;55.756;37.412;2022-08-03T00:06:56;99108.19;;;20.95;52.78
69035;BME280;56091;55.756;37.412;2022-08-03T00:11:57;99104.84;;;20.90;52.74
69035;BME280;56091;55.756;37.412;2022-08-03T00:16:59;99117.59;;;20.85;53.12
69035;BME280;56091;55.756;37.412;2022-08-03T00:22:02;99115.81;;;20.81;52.95
69035;BME280;56091;55.756;37.412;2022-08-03T00:27:03;99078.47;;;20.50;52.84
69035;BME280;56091;55.756;37.412;2022-08-03T00:32:06;99110.84;;;20.74;53.37
69035;BME280;56091;55.756;37.412;2022-08-03T00:37:07;99092.16;;;20.59;53.15
69035;BME280;56091;55.756;37.412;2022-08-03T00:42:10;99113.44;;;20.71;53.90
69035;BME280;56091;55.756;37.412;2022-08-03T00:47:11;99108.59;;;20.67;54.21
69035;BME280;56091;55.756;37.412;2022-08-03T00:52:12;99113.75;;;20.69;54.11
69035;BME280;56091;55.756;37.412;2022-08-03T00:57:15;99109.25;;;20.64;54.42
69035;BME280;56091;55.756;37.412;2022-08-03T01:02:15;99085.25;;;20.53;54.27
69035;BME280;56091;55.756;37.412;2022-08-03T01:07:39;99107.47;;;20.60;54.10
69035;BME280;56091;55.756;37.412;2022-08-03T01:12:58;99094.25;;;20.53;54.59
69035;BME280;56091;55.756;37.412;2022-08-03T01:18:19;99096.22;;;20.53;54.73
69035;BME280;56091;55.756;37.412;2022-08-03T01:33:51;99097.16;;;20.39;55.03
69035;BME280;56091;55.756;37.412;2022-08-03T01:38:59;99103.47;;;20.31;55.28
69035;BME280;56091;55.756;37.412;2022-08-03T01:44:02;99107.34;;;20.30;54.50
69035;BME280;56091;55.756;37.412;2022-08-03T01:49:08;99101.56;;;20.23;54.28
69035;BME280;56091;55.756;37.412;2022-08-03T01:54:12;99111.53;;;20.27;55.94
69035;BME280;56091;55.756;37.412;2022-08-03T01:59:15;99111.38;;;20.24;54.55
69035;BME280;56091;55.756;37.412;2022-08-03T02:04:17;99114.56;;;20.26;55.55
69035;BME280;56091;55.756;37.412;2022-08-03T02:09:20;99125.22;;;20.27;55.17
69035;BME280;56091;55.756;37.412;2022-08-03T02:14:22;99104.44;;;20.26;55.67
69035;BME280;56091;55.756;37.412;2022-08-03T02:19:25;99095.28;;;20.22;55.20
69035;BME280;56091;55.756;37.412;2022-08-03T02:24:30;99117.97;;;20.40;55.22
69035;BME280;56091;55.756;37.412;2022-08-03T02:29:37;99108.75;;;20.45;54.97
69035;BME280;56091;55.756;37.412;2022-08-03T02:34:41;99124.88;;;20.64;54.91
69035;BME280;56091;55.756;37.412;2022-08-03T02:39:44;99112.00;;;20.64;54.41
69035;BME280;56091;55.756;37.412;2022-08-03T02:44:47;99124.50;;;20.83;54.62
69035;BME280;56091;55.756;37.412;2022-08-03T02:49:51;99127.22;;;20.92;53.69
69035;BME280;56091;55.756;37.412;2022-08-03T02:54:57;99132.53;;;20.97;53.49
69035;BME280;56091;55.756;37.412;2022-08-03T03:00:02;99134.78;;;21.03;53.52
69035;BME280;56091;55.756;37.412;2022-08-03T03:05:05;99118.84;;;20.97;53.26
69035;BME280;56091;55.756;37.412;2022-08-03T03:10:07;99122.06;;;20.99;53.22
69035;BME280;56091;55.756;37.412;2022-08-03T03:15:09;99145.38;;;21.14;53.37
69035;BME280;56091;55.756;37.412;2022-08-03T03:20:10;99128.94;;;21.14;53.49
69035;BME280;56091;55.756;37.412;2022-08-03T03:25:13;99139.69;;;21.28;53.28
69035;BME280;56091;55.756;37.412;2022-08-03T03:30:15;99146.50;;;21.21;53.42
69035;BME280;56091;55.756;37.412;2022-08-03T03:35:16;99143.06;;;21.24;53.22
69035;BME280;56091;55.756;37.412;2022-08-03T03:40:17;99137.31;;;21.17;52.79
69035;BME280;56091;55.756;37.412;2022-08-03T03:45:20;99147.22;;;21.39;52.25
69035;BME280;56091;55.756;37.412;2022-08-03T03:50:22;99141.41;;;21.41;52.46
69035;BME280;56091;55.756;37.412;2022-08-03T03:55:23;99149.09;;;21.56;52.46
69035;BME280;56091;55.756;37.412;2022-08-03T04:00:24;99156.75;;;21.72;51.88
69035;BME280;56091;55.756;37.412;2022-08-03T04:05:25;99133.38;;;21.66;52.19
69035;BME280;56091;55.756;37.412;2022-08-03T04:10:55;99152.34;;;21.79;52.02
69035;BME280;56091;55.756;37.412;2022-08-03T04:16:00;99165.38;;;21.91;51.51
69035;BME280;56091;55.756;37.412;2022-08-03T04:21:05;99160.53;;;21.88;51.91
69035;BME280;56091;55.756;37.412;2022-08-03T04:26:10;99166.34;;;21.87;52.00
69035;BME280;56091;55.756;37.412;2022-08-03T04:31:13;99150.03;;;21.90;51.97
69035;BME280;56091;55.756;37.412;2022-08-03T04:36:18;99143.31;;;22.00;51.82
69035;BME280;56091;55.756;37.412;2022-08-03T04:41:23;99161.47;;;22.13;51.67
69035;BME280;56091;55.756;37.412;2022-08-03T04:46:31;99178.69;;;22.31;51.37
69035;BME280;56091;55.756;37.412;2022-08-03T04:51:34;99176.56;;;22.49;51.21
69035;BME280;56091;55.756;37.412;2022-08-03T04:56:42;99167.50;;;22.70;51.11
69035;BME280;56091;55.756;37.412;2022-08-03T05:01:43;99183.41;;;22.97;50.29
69035;BME280;56091;55.756;37.412;2022-08-03T05:06:44;99178.75;;;23.10;49.69
69035;BME280;56091;55.756;37.412;2022-08-03T05:11:45;99175.34;;;23.38;49.07
69035;BME280;56091;55.756;37.412;2022-08-03T05:16:45;99170.53;;;23.59;48.64
69035;BME280;56091;55.756;37.412;2022-08-03T05:21:46;99177.88;;;23.68;48.31
69035;BME280;56091;55.756;37.412;2022-08-03T05:26:47;99167.53;;;23.77;48.29
69035;BME280;56091;55.756;37.412;2022-08-03T05:31:48;99167.34;;;23.94;47.96
69035;BME280;56091;55.756;37.412;2022-08-03T05:36:50;99153.75;;;24.02;46.97
69035;BME280;56091;55.756;37.412;2022-08-03T05:41:50;99185.78;;;24.47;46.82
69035;BME280;56091;55.756;37.412;2022-08-03T05:46:51;99194.94;;;24.63;46.25
69035;BME280;56091;55.756;37.412;2022-08-03T05:51:52;99194.59;;;24.65;45.70
69035;BME280;56091;55.756;37.412;2022-08-03T05:56:53;99191.53;;;24.82;45.71
69035;BME280;56091;55.756;37.412;2022-08-03T06:01:54;99189.97;;;24.97;44.91
69035;BME280;56091;55.756;37.412;2022-08-03T06:06:54;99194.25;;;25.10;44.71
69035;BME280;56091;55.756;37.412;2022-08-03T06:11:55;99181.78;;;25.17;43.86
69035;BME280;56091;55.756;37.412;2022-08-03T06:16:56;99194.69;;;25.12;45.17
69035;BME280;56091;55.756;37.412;2022-08-03T06:22:03;99188.66;;;25.23;45.18
69035;BME280;56091;55.756;37.412;2022-08-03T06:27:04;99180.13;;;25.28;44.38
69035;BME280;56091;55.756;37.412;2022-08-03T06:32:05;99191.69;;;25.49;43.48
69035;BME280;56091;55.756;37.412;2022-08-03T06:37:06;99160.81;;;25.28;43.75
69035;BME280;56091;55.756;37.412;2022-08-03T06:42:07;99188.41;;;25.92;42.45
69035;BME280;56091;55.756;37.412;2022-08-03T06:47:11;99189.88;;;26.05;41.24
69035;BME280;56091;55.756;37.412;2022-08-03T06:52:12;99179.53;;;26.02;40.41
69035;BME280;56091;55.756;37.412;2022-08-03T06:57:12;99179.63;;;26.25;40.00
69035;BME280;56091;55.756;37.412;2022-08-03T07:02:19;99199.28;;;26.39;36.65
69035;BME280;56091;55.756;37.412;2022-08-03T07:07:20;99166.09;;;26.20;35.60
69035;BME280;56091;55.756;37.412;2022-08-03T07:12:20;99210.34;;;26.59;36.04
69035;BME280;56091;55.756;37.412;2022-08-03T07:17:21;99199.56;;;26.54;36.67
69035;BME280;56091;55.756;37.412;2022-08-03T07:22:23;99194.03;;;26.54;36.37
69035;BME280;56091;55.756;37.412;2022-08-03T07:27:24;99189.97;;;26.47;36.31
69035;BME280;56091;55.756;37.412;2022-08-03T07:32:26;99205.47;;;26.52;36.48
69035;BME280;56091;55.756;37.412;2022-08-03T07:37:31;99204.41;;;26.37;36.15
69035;BME280;56091;55.756;37.412;2022-08-03T07:42:32;99209.25;;;26.44;36.37
69035;BME280;56091;55.756;37.412;2022-08-03T07:47:33;99201.97;;;26.55;36.10
69035;BME280;56091;55.756;37.412;2022-08-03T07:52:34;99207.91;;;26.73;35.63
69035;BME280;56091;55.756;37.412;2022-08-03T07:58:12;99217.56;;;27.02;34.84
69035;BME280;56091;55.756;37.412;2022-08-03T08:03:15;99205.88;;;27.13;34.23
69035;BME280;56091;55.756;37.412;2022-08-03T08:08:17;99219.16;;;27.46;33.34
69035;BME280;56091;55.756;37.412;2022-08-03T08:13:17;99216.56;;;27.57;32.58
69035;BME280;56091;55.756;37.412;2022-08-03T08:18:20;99219.63;;;27.52;32.72
69035;BME280;56091;55.756;37.412;2022-08-03T08:23:21;99220.13;;;27.57;32.17
69035;BME280;56091;55.756;37.412;2022-08-03T08:28:23;99216.41;;;27.73;32.47
69035;BME280;56091;55.756;37.412;2022-08-03T08:33:24;99192.25;;;27.46;32.54
69035;BME280;56091;55.756;37.412;2022-08-03T08:38:25;99221.88;;;27.69;32.72
69035;BME280;56091;55.756;37.412;2022-08-03T08:43:28;99218.94;;;27.58;33.07
69035;BME280;56091;55.756;37.412;2022-08-03T08:48:29;99218.63;;;27.63;32.94
69035;BME280;56091;55.756;37.412;2022-08-03T08:53:30;99214.97;;;27.82;32.78
69035;BME280;56091;55.756;37.412;2022-08-03T08:58:42;99223.28;;;27.82;32.52
69035;BME280;56091;55.756;37.412;2022-08-03T09:03:44;99215.81;;;27.87;32.18
69035;BME280;56091;55.756;37.412;2022-08-03T09:08:45;99214.31;;;27.89;31.74
69035;BME280;56091;55.756;37.412;2022-08-03T09:13:46;99199.19;;;27.87;31.91
69035;BME280;56091;55.756;37.412;2022-08-03T09:18:50;99218.09;;;28.31;31.58
69035;BME280;56091;55.756;37.412;2022-08-03T09:23:53;99210.50;;;28.28;31.20
69035;BME280;56091;55.756;37.412;2022-08-03T09:29:08;99211.13;;;28.74;30.94
69035;BME280;56091;55.756;37.412;2022-08-03T09:34:11;99229.53;;;28.90;30.62
69035;BME280;56091;55.756;37.412;2022-08-03T09:39:14;99215.44;;;28.72;31.56
69035;BME280;56091;55.756;37.412;2022-08-03T09:44:15;99198.47;;;28.77;32.43
69035;BME280;56091;55.756;37.412;2022-08-03T09:49:16;99228.47;;;29.01;32.25
69035;BME280;56091;55.756;37.412;2022-08-03T09:54:30;99226.75;;;29.27;31.60
69035;BME280;56091;55.756;37.412;2022-08-03T09:59:32;99216.53;;;29.35;32.03
69035;BME280;56091;55.756;37.412;2022-08-03T10:04:46;99222.34;;;29.67;31.19
69035;BME280;56091;55.756;37.412;2022-08-03T10:09:59;99221.81;;;29.51;30.50
69035;BME280;56091;55.756;37.412;2022-08-03T10:15:01;99217.47;;;29.12;31.19
69035;BME280;56091;55.756;37.412;2022-08-03T10:20:05;99205.25;;;28.83;32.22
69035;BME280;56091;55.756;37.412;2022-08-03T10:25:11;99215.81;;;28.70;32.08
69035;BME280;56091;55.756;37.412;2022-08-03T10:30:13;99224.97;;;28.71;32.38
69035;BME280;56091;55.756;37.412;2022-08-03T10:35:15;99223.94;;;28.86;32.38
69035;BME280;56091;55.756;37.412;2022-08-03T10:40:21;99238.69;;;28.94;31.83
69035;BME280;56091;55.756;37.412;2022-08-03T10:45:26;99235.13;;;29.31;31.59
69035;BME280;56091;55.756;37.412;2022-08-03T10:50:27;99196.88;;;29.58;30.86
69035;BME280;56091;55.756;37.412;2022-08-03T10:55:30;99235.81;;;30.13;29.86
69035;BME280;56091;55.756;37.412;2022-08-03T11:00:51;99243.09;;;30.32;29.66
69035;BME280;56091;55.756;37.412;2022-08-03T11:06:22;99243.44;;;30.31;28.69
69035;BME280;56091;55.756;37.412;2022-08-03T11:11:27;99238.00;;;30.52;28.72
69035;BME280;56091;55.756;37.412;2022-08-03T11:16:33;99228.41;;;30.35;28.70
69035;BME280;56091;55.756;37.412;2022-08-03T11:42:53;99230.63;;;30.89;27.98
69035;BME280;56091;55.756;37.412;2022-08-03T11:47:54;99234.56;;;30.88;28.64
69035;BME280;56091;55.756;37.412;2022-08-03T11:52:55;99238.94;;;30.85;28.30
69035;BME280;56091;55.756;37.412;2022-08-03T11:58:02;99225.75;;;30.71;28.48
69035;BME280;56091;55.756;37.412;2022-08-03T12:03:06;99227.22;;;30.36;28.89
69035;BME280;56091;55.756;37.412;2022-08-03T12:08:14;99230.25;;;30.13;29.45
69035;BME280;56091;55.756;37.412;2022-08-03T12:13:16;99230.31;;;29.72;29.69
69035;BME280;56091;55.756;37.412;2022-08-03T12:18:18;99216.75;;;29.19;30.60
69035;BME280;56091;55.756;37.412;2022-08-03T12:23:20;99223.84;;;29.13;30.80
69035;BME280;56091;55.756;37.412;2022-08-03T12:28:21;99225.13;;;29.23;31.33
69035;BME280;56091;55.756;37.412;2022-08-03T12:33:25;99225.97;;;29.27;31.79
69035;BME280;56091;55.756;37.412;2022-08-03T12:38:27;99197.00;;;29.24;31.55
69035;BME280;56091;55.756;37.412;2022-08-03T12:43:28;99223.88;;;29.61;31.55
69035;BME280;56091;55.756;37.412;2022-08-03T12:48:29;99218.69;;;29.56;30.97
69035;BME280;56091;55.756;37.412;2022-08-03T12:53:30;99231.31;;;29.50;31.06
69035;BME280;56091;55.756;37.412;2022-08-03T12:58:33;99225.34;;;29.48;31.42
69035;BME280;56091;55.756;37.412;2022-08-03T13:03:42;99223.72;;;29.39;31.62
69035;BME280;56091;55.756;37.412;2022-08-03T13:08:47;99223.25;;;29.34;31.56
69035;BME280;56091;55.756;37.412;2022-08-03T13:13:49;99242.81;;;29.45;31.12
69035;BME280;56091;55.756;37.412;2022-08-03T13:18:50;99243.66;;;29.52;31.29
69035;BME280;56091;55.756;37.412;2022-08-03T13:23:53;99210.56;;;29.36;31.75
69035;BME280;56091;55.756;37.412;2022-08-03T13:28:54;99219.75;;;29.44;31.26
69035;BME280;56091;55.756;37.412;2022-08-03T13:33:56;99233.06;;;29.69;31.11
69035;BME280;56091;55.756;37.412;2022-08-03T13:38:57;99212.56;;;29.81;31.32
69035;BME280;56091;55.756;37.412;2022-08-03T13:43:58;99226.47;;;30.50;29.70
69035;BME280;56091;55.756;37.412;2022-08-03T13:49:01;99209.16;;;33.74;25.07
69035;BME280;56091;55.756;37.412;2022-08-03T13:54:02;99216.13;;;36.81;20.83
69035;BME280;56091;55.756;37.412;2022-08-03T13:59:04;99228.88;;;39.40;18.21
69035;BME280;56091;55.756;37.412;2022-08-03T14:04:05;99220.25;;;40.61;16.62
69035;BME280;56091;55.756;37.412;2022-08-03T14:09:06;99230.00;;;41.23;15.99
69035;BME280;56091;55.756;37.412;2022-08-03T14:14:10;99231.44;;;40.20;16.37
69035;BME280;56091;55.756;37.412;2022-08-03T14:19:11;99230.25;;;37.14;19.57
69035;BME280;56091;55.756;37.412;2022-08-03T14:24:12;99223.44;;;35.71;21.39
69035;BME280;56091;55.756;37.412;2022-08-03T14:29:13;99221.16;;;34.81;22.44
69035;BME280;56091;55.756;37.412;2022-08-03T14:34:14;99219.47;;;34.56;23.45
69035;BME280;56091;55.756;37.412;2022-08-03T14:39:15;99225.03;;;35.22;22.87
69035;BME280;56091;55.756;37.412;2022-08-03T14:44:16;99224.97;;;34.64;23.93
69035;BME280;56091;55.756;37.412;2022-08-03T14:49:17;99230.31;;;33.75;24.90
69035;BME280;56091;55.756;37.412;2022-08-03T14:54:18;99197.16;;;33.24;24.63
69035;BME280;56091;55.756;37.412;2022-08-03T14:59:18;99236.22;;;34.60;23.57
69035;BME280;56091;55.756;37.412;2022-08-03T15:04:19;99224.78;;;35.36;22.69
69035;BME280;56091;55.756;37.412;2022-08-03T15:09:21;99219.09;;;36.34;20.36
69035;BME280;56091;55.756;37.412;2022-08-03T15:14:22;99225.84;;;36.37;20.92
69035;BME280;56091;55.756;37.412;2022-08-03T15:19:23;99214.19;;;35.47;22.50
69035;BME280;56091;55.756;37.412;2022-08-03T15:24:24;99222.16;;;34.64;24.58
69035;BME280;56091;55.756;37.412;2022-08-03T15:29:25;99225.28;;;34.38;24.20
69035;BME280;56091;55.756;37.412;2022-08-03T15:34:26;99223.50;;;35.13;23.81
69035;BME280;56091;55.756;37.412;2022-08-03T15:39:29;99217.34;;;35.26;23.68
69035;BME280;56091;55.756;37.412;2022-08-03T15:44:30;99235.78;;;35.50;23.68
69035;BME280;56091;55.756;37.412;2022-08-03T15:49:31;99233.28;;;35.56;23.73
69035;BME280;56091;55.756;37.412;2022-08-03T15:54:32;99233.13;;;34.51;24.08
69035;BME280;56091;55.756;37.412;2022-08-03T15:59:33;99237.34;;;32.67;26.49
69035;BME280;56091;55.756;37.412;2022-08-03T16:04:34;99227.97;;;31.64;28.54
69035;BME280;56091;55.756;37.412;2022-08-03T16:09:35;99215.97;;;31.10;28.88
69035;BME280;56091;55.756;37.412;2022-08-03T16:14:36;99224.56;;;30.69;29.55
69035;BME280;56091;55.756;37.412;2022-08-03T16:19:38;99233.00;;;30.10;30.39
69035;BME280;56091;55.756;37.412;2022-08-03T16:24:38;99193.09;;;29.32;31.05
69035;BME280;56091;55.756;37.412;2022-08-03T16:29:39;99237.44;;;29.25;31.99
69035;BME280;56091;55.756;37.412;2022-08-03T16:34:40;99239.28;;;29.10;32.78
69035;BME280;56091;55.756;37.412;2022-08-03T16:39:41;99238.66;;;28.90;33.02
69035;BME280;56091;55.756;37.412;2022-08-03T16:44:42;99234.13;;;28.75;33.00
69035;BME280;56091;55.756;37.412;2022-08-03T16:49:43;99235.13;;;28.59;33.00
69035;BME280;56091;55.756;37.412;2022-08-03T16:54:45;99242.06;;;28.46;33.66
69035;BME280;56091;55.756;37.412;2022-08-03T16:59:45;99210.28;;;28.10;34.13
69035;BME280;56091;55.756;37.412;2022-08-03T17:04:46;99245.72;;;28.23;34.60
69035;BME280;56091;55.756;37.412;2022-08-03T17:09:50;99228.72;;;27.98;35.09
69035;BME280;56091;55.756;37.412;2022-08-03T17:14:55;99259.22;;;28.02;35.14
69035;BME280;56091;55.756;37.412;2022-08-03T17:20:08;99252.50;;;27.76;35.91
69035;BME280;56091;55.756;37.412;2022-08-03T17:25:10;99260.25;;;27.67;36.47
69035;BME280;56091;55.756;37.412;2022-08-03T17:30:12;99243.78;;;27.51;36.64
69035;BME280;56091;55.756;37.412;2022-08-03T17:35:15;99281.84;;;27.58;37.16
69035;BME280;56091;55.756;37.412;2022-08-03T17:40:16;99252.88;;;27.29;36.60
69035;BME280;56091;55.756;37.412;2022-08-03T17:45:17;99287.94;;;27.44;37.06
69035;BME280;56091;55.756;37.412;2022-08-03T17:50:19;99288.16;;;27.35;37.57
69035;BME280;56091;55.756;37.412;2022-08-03T17:55:20;99277.97;;;27.20;37.89
69035;BME280;56091;55.756;37.412;2022-08-03T18:00:22;99276.53;;;27.06;38.14
69035;BME280;56091;55.756;37.412;2022-08-03T18:05:53;99298.31;;;27.08;38.12
69035;BME280;56091;55.756;37.412;2022-08-03T18:11:01;99273.84;;;26.91;38.64
69035;BME280;56091;55.756;37.412;2022-08-03T18:16:06;99301.59;;;26.94;38.88
69035;BME280;56091;55.756;37.412;2022-08-03T18:21:10;99304.50;;;26.82;38.71
69035;BME280;56091;55.756;37.412;2022-08-03T18:26:12;99306.47;;;26.81;38.86
69035;BME280;56091;55.756;37.412;2022-08-03T18:31:14;99309.78;;;26.71;38.92
69035;BME280;56091;55.756;37.412;2022-08-03T18:36:17;99301.81;;;26.50;38.88
69035;BME280;56091;55.756;37.412;2022-08-03T18:41:18;99327.78;;;26.45;39.06
69035;BME280;56091;55.756;37.412;2022-08-03T18:51:50;99291.28;;;26.04;40.00
69035;BME280;56091;55.756;37.412;2022-08-03T18:56:53;99334.00;;;26.07;39.42
69035;BME280;56091;55.756;37.412;2022-08-03T19:02:00;99339.47;;;25.91;39.46
69035;BME280;56091;55.756;37.412;2022-08-03T19:07:07;99310.06;;;25.51;39.86
69035;BME280;56091;55.756;37.412;2022-08-03T19:12:16;99353.81;;;25.65;39.85
69035;BME280;56091;55.756;37.412;2022-08-03T19:17:18;99331.94;;;25.44;40.18
69035;BME280;56091;55.756;37.412;2022-08-03T19:22:22;99352.78;;;25.41;40.85
69035;BME280;56091;55.756;37.412;2022-08-03T19:27:28;99331.59;;;25.17;40.50
69035;BME280;56091;55.756;37.412;2022-08-03T19:32:31;99344.81;;;25.11;41.25
69035;BME280;56091;55.756;37.412;2022-08-03T19:37:33;99353.72;;;25.05;41.34
69035;BME280;56091;55.756;37.412;2022-08-03T19:42:38;99350.63;;;24.94;41.43
69035;BME280;56091;55.756;37.412;2022-08-03T19:48:07;99343.53;;;24.81;41.89
69035;BME280;56091;55.756;37.412;2022-08-03T19:53:09;99349.44;;;24.67;42.46
69035;BME280;56091;55.756;37.412;2022-08-03T19:58:16;99348.31;;;24.55;43.02
69035;BME280;56091;55.756;37.412;2022-08-03T20:03:17;99349.09;;;24.44;43.13
69035;BME280;56091;55.756;37.412;2022-08-03T20:08:19;99346.22;;;24.28;43.38
69035;BME280;56091;55.756;37.412;2022-08-03T20:13:20;99347.72;;;24.25;43.59
69035;BME280;56091;55.756;37.412;2022-08-03T20:18:21;99326.38;;;23.97;43.87
69035;BME280;56091;55.756;37.412;2022-08-03T20:23:22;99353.34;;;24.04;44.02
69035;BME280;56091;55.756;37.412;2022-08-03T20:28:29;99365.75;;;23.98;43.96
69035;BME280;56091;55.756;37.412;2022-08-03T20:33:30;99371.13;;;23.94;44.34
69035;BME280;56091;55.756;37.412;2022-08-03T20:38:31;99365.25;;;23.84;43.75
69035;BME280;56091;55.756;37.412;2022-08-03T20:43:32;99377.53;;;23.86;43.63
69035;BME280;56091;55.756;37.412;2022-08-03T20:48:34;99375.84;;;23.73;44.29
69035;BME280;56091;55.756;37.412;2022-08-03T20:53:38;99388.03;;;23.72;43.99
69035;BME280;56091;55.756;37.412;2022-08-03T20:58:42;99380.78;;;23.67;43.80
69035;BME280;56091;55.756;37.412;2022-08-03T21:03:46;99385.69;;;23.62;44.34
69035;BME280;56091;55.756;37.412;2022-08-03T21:08:48;99395.91;;;23.61;43.84
69035;BME280;56091;55.756;37.412;2022-08-03T21:13:57;99396.94;;;23.56;43.82
69035;BME280;56091;55.756;37.412;2022-08-03T21:19:05;99403.44;;;23.52;44.15
69035;BME280;56091;55.756;37.412;2022-08-03T21:24:08;99395.03;;;23.36;44.15
69035;BME280;56091;55.756;37.412;2022-08-03T21:29:11;99409.38;;;23.42;44.39
69035;BME280;56091;55.756;37.412;2022-08-03T21:34:14;99403.75;;;23.38;44.29
69035;BME280;56091;55.756;37.412;2022-08-03T21:39:15;99406.69;;;23.33;44.69
69035;BME280;56091;55.756;37.412;2022-08-03T21:44:20;99399.00;;;23.26;44.45
69035;BME280;56091;55.756;37.412;2022-08-03T21:49:25;99402.06;;;23.25;44.46
69035;BME280;56091;55.756;37.412;2022-08-03T21:54:33;99418.44;;;23.21;44.99
69035;BME280;56091;55.756;37.412;2022-08-03T21:59:43;99407.97;;;23.14;44.89
69035;BME280;56091;55.756;37.412;2022-08-03T22:04:45;99414.63;;;23.13;44.49
69035;BME280;56091;55.756;37.412;2022-08-03T22:09:46;99412.75;;;23.05;44.72
69035;BME280;56091;55.756;37.412;2022-08-03T22:14:48;99400.97;;;22.96;44.65
69035;BME280;56091;55.756;37.412;2022-08-03T22:19:51;99399.16;;;23.00;44.87
69035;BME280;56091;55.756;37.412;2022-08-03T22:25:07;99409.53;;;23.03;44.96
69035;BME280;56091;55.756;37.412;2022-08-03T22:30:15;99408.06;;;22.97;44.95
69035;BME280;56091;55.756;37.412;2022-08-03T22:35:17;99418.13;;;22.93;45.10
69035;BME280;56091;55.756;37.412;2022-08-03T22:40:22;99419.28;;;22.92;45.78
69035;BME280;56091;55.756;37.412;2022-08-03T22:45:23;99419.03;;;22.76;46.54
69035;BME280;56091;55.756;37.412;2022-08-03T22:50:26;99436.22;;;22.73;47.18
69035;BME280;56091;55.756;37.412;2022-08-03T22:55:27;99429.13;;;22.63;47.59
69035;BME280;56091;55.756;37.412;2022-08-03T23:00:28;99441.94;;;22.59;47.82
69035;BME280;56091;55.756;37.412;2022-08-03T23:05:32;99425.03;;;22.48;48.12
69035;BME280;56091;55.756;37.412;2022-08-03T23:10:33;99434.25;;;22.44;48.24
69035;BME280;56091;55.756;37.412;2022-08-03T23:15:34;99433.31;;;22.39;48.70
69035;BME280;56091;55.756;37.412;2022-08-03T23:20:35;99437.19;;;22.38;48.71
69035;BME280;56091;55.756;37.412;2022-08-03T23:25:38;99411.91;;;22.07;49.26
69035;BME280;56091;55.756;37.412;2022-08-03T23:30:41;99434.34;;;22.26;49.23
69035;BME280;56091;55.756;37.412;2022-08-03T23:35:44;99447.28;;;22.26;49.03
69035;BME280;56091;55.756;37.412;2022-08-03T23:40:59;99451.94;;;22.25;49.01
69035;BME280;56091;55.756;37.412;2022-08-03T23:46:03;99453.69;;;22.21;49.49
69035;BME280;56091;55.756;37.412;2022-08-03T23:51:12;99463.09;;;22.20;49.62
